Latest Weather Observations for Truscott

IDD60801

Issued at 3:01 pm CST Tuesday 28 July 2015 (issued every 30 minutes, with the page automatically refreshed every 10 minutes)

About weather observations | Map of weather stations | Latest weather observations for NT | Other Formats
Station Details ID: 001020 Name: TRUSCOTT Lat: -14.09 Lon: 126.39 Height: 51.0 m
Data from the previous 72 hours. | See also: Recent months at Truscott
Date/Time
CST
Temp
°C
App
Temp
°C
Dew
Point
Rel
Hum
%
Delta-T
°C
Wind Press
QNH
hPa
Press
MSL
hPa
Rain
since 9 am
mm
Dir
 
Spd
km/h
Gust
km/h
Spd
kts
Gust
kts
28/03:00pm 31.3 27.2 7.7 23 12.9 ENE 19 30 10 16 1015.7 - 0.0
28/02:30pm 30.5 26.2 7.0 23 12.7 E 19 33 10 18 1016.2 - 0.0
28/02:00pm 30.3 26.1 7.5 24 12.4 ESE 19 30 10 16 1016.7 - 0.0
28/01:30pm 30.3 25.9 7.5 24 12.4 E 20 35 11 19 1017.4 1017.1 0.0
28/01:00pm 29.6 24.8 7.5 25 12.0 E 22 37 12 20 1017.9 - 0.0
28/12:30pm 29.8 25.6 8.2 26 11.8 E 20 35 11 19 1018.3 - 0.0
28/12:00pm 28.9 24.3 8.0 27 11.4 E 22 35 12 19 1018.7 - 0.0
28/11:30am 28.3 22.8 7.5 27 11.2 E 26 41 14 22 1018.9 - 0.0
28/11:00am 28.3 23.5 7.5 27 11.2 E 22 35 12 19 1019.2 - 0.0
28/10:30am 27.6 22.1 7.5 28 10.8 E 26 39 14 21 1019.3 1019.0 0.0
28/10:00am 27.0 22.5 6.9 28 10.6 ESE 20 33 11 18 1019.2 - 0.0
28/09:30am 26.5 22.3 7.5 30 10.1 ESE 19 33 10 18 1019.0 - 0.0
28/09:00am 25.8 21.7 7.9 32 9.6 ESE 19 28 10 15 1018.8 - 0.0
28/08:30am 25.2 21.8 7.8 33 9.2 E 15 24 8 13 1018.6 - 0.0
28/08:00am 24.6 22.0 7.7 34 8.9 ESE 11 17 6 9 1018.1 - 0.0
28/07:30am 24.5 21.5 7.6 34 8.9 ESE 13 24 7 13 1017.6 1017.3 0.0
28/07:00am 25.0 21.3 8.1 34 9.0 ESE 17 30 9 16 1017.1 - 0.0
28/06:30am 25.2 22.3 8.2 34 9.1 ESE 13 19 7 10 1016.8 - 0.0
28/06:00am 25.5 22.6 8.1 33 9.3 SE 13 24 7 13 1016.5 - 0.0
28/05:30am 25.9 22.7 8.4 33 9.4 ESE 15 28 8 15 1016.4 - 0.0
28/05:00am 26.3 23.2 8.8 33 9.5 SE 15 26 8 14 1016.2 - 0.0
28/04:30am 26.4 23.7 8.8 33 9.6 SE 13 26 7 14 1016.0 1015.7 0.0
28/04:00am 26.3 23.3 9.2 34 9.4 ESE 15 28 8 15 1016.2 - 0.0
28/03:30am 26.6 24.2 9.9 35 9.3 ESE 13 24 7 13 1016.3 - 0.0
28/03:00am 25.1 23.7 12.3 45 7.4 ESE 11 17 6 9 1016.5 - 0.0
28/02:30am 22.0 22.6 15.4 66 3.9 SE 6 7 3 4 1016.5 - 0.0
28/02:00am 23.4 24.1 16.0 63 4.5 S 7 9 4 5 1016.6 - 0.0
28/01:30am 24.5 24.9 16.2 60 5.1 SSW 9 13 5 7 1016.7 1016.4 0.0
28/01:00am 24.8 25.0 16.8 61 4.9 SSW 11 13 6 7 1016.9 - 0.0
28/12:30am 23.9 25.0 17.2 66 4.2 SSW 7 11 4 6 1017.0 - 0.0
28/12:00am 23.5 24.4 16.5 65 4.3 SSW 7 7 4 4 1017.0 - 0.0
 
Date/Time
CST
Temp
°C
App
Temp
°C
Dew
Point
Rel
Hum
%
Delta-T
°C
Wind Press
QNH
hPa
Press
MSL
hPa
Rain
since 9 am
mm
Dir
 
Spd
km/h
Gust
km/h
Spd
kts
Gust
kts
27/11:30pm 24.4 25.5 17.1 63 4.5 S 7 7 4 4 1017.1 - 0.0
27/11:00pm 24.8 26.3 17.5 64 4.6 ESE 6 7 3 4 1017.0 - 0.0
27/10:30pm 25.7 26.3 15.7 54 6.1 E 7 9 4 5 1017.0 1016.7 0.0
27/10:00pm 26.7 27.3 15.7 51 6.7 ENE 7 9 4 5 1016.8 - 0.0
27/09:30pm 27.5 27.6 15.5 48 7.3 ENE 9 15 5 8 1016.7 - 0.0
27/09:00pm 27.8 27.5 15.5 47 7.5 NE 11 15 6 8 1016.4 - 0.0
27/08:30pm 28.1 28.2 15.4 46 7.8 NE 9 13 5 7 1016.1 - 0.0
27/08:00pm 28.7 28.2 14.9 43 8.4 NE 11 19 6 10 1015.7 - 0.0
27/07:30pm 29.2 27.8 14.6 41 8.9 ENE 15 24 8 13 1015.5 1015.2 0.0
27/07:00pm 27.5 30.0 19.8 63 5.0 NE 6 7 3 4 1015.1 - 0.0
27/06:30pm 28.0 29.6 19.2 58 5.7 NNW 9 13 5 7 1014.8 - 0.0
27/06:00pm 28.9 30.4 18.9 54 6.5 NNW 9 13 5 7 1014.6 - 0.0
27/05:30pm 29.2 29.5 18.0 51 7.2 N 13 20 7 11 1014.5 - 0.0
27/05:00pm 29.5 28.8 17.3 47 7.7 N 17 24 9 13 1014.4 - 0.0
27/04:30pm 30.1 28.4 15.8 42 8.9 N 19 28 10 15 1014.0 1013.6 0.0
27/04:00pm 30.3 28.5 15.6 41 9.1 N 19 28 10 15 1014.1 - 0.0
27/03:30pm 31.0 29.3 14.6 37 10.0 N 17 24 9 13 1014.2 - 0.0
27/03:00pm 31.7 29.9 15.6 37 10.0 NNE 19 28 10 15 1014.3 - 0.0
27/02:30pm 33.3 31.6 14.8 32 11.4 NE 17 28 9 15 1014.4 - 0.0
27/02:00pm 33.4 31.8 14.9 32 11.5 NE 17 26 9 14 1014.8 - 0.0
27/01:30pm 32.2 30.2 13.9 33 11.1 ENE 17 26 9 14 1015.4 1015.1 0.0
27/01:00pm 32.3 30.0 14.0 33 11.1 ENE 19 28 10 15 1015.9 - 0.0
27/12:30pm 32.3 30.7 14.9 35 10.7 E 17 24 9 13 1016.2 - 0.0
27/12:00pm 31.7 29.6 13.5 33 11.0 E 17 26 9 14 1016.7 - 0.0
27/11:30am 31.3 30.1 14.0 35 10.5 SE 13 22 7 12 1017.1 - 0.0
27/11:00am 31.2 31.2 15.2 38 9.9 SSE 9 17 5 9 1017.5 - 0.0
27/10:30am 30.0 29.9 14.9 39 9.2 S 9 15 5 8 1017.7 1017.4 0.0
27/10:00am 28.4 28.6 15.7 46 7.8 SSE 9 13 5 7 1017.8 - 0.0
27/09:30am 27.2 27.7 16.5 52 6.6 SE 9 13 5 7 1017.7 - 0.0
27/09:00am 25.3 26.4 17.2 61 5.0 SSE 7 9 4 5 1017.8 - 0.0
27/08:30am 23.2 24.4 17.4 70 3.6 SSE 7 9 4 5 1017.6 - 0.0
27/08:00am 21.8 23.3 18.0 79 2.4 SSE 7 9 4 5 1017.3 - 0.0
27/07:30am 20.3 21.7 17.7 85 1.6 SSE 7 9 4 5 1016.8 1016.5 0.0
27/07:00am 20.8 22.6 18.2 85 1.6 SSE 6 7 3 4 1016.7 - 0.0
27/06:30am 20.9 22.5 18.3 85 1.6 SSE 7 7 4 4 1016.5 - 0.0
27/06:00am 21.4 23.0 18.2 82 2.0 S 7 9 4 5 1016.2 - 0.0
27/05:30am 22.2 23.5 18.4 79 2.4 S 9 11 5 6 1016.1 - 0.0
27/05:00am 22.8 24.5 19.4 81 2.2 SSW 9 11 5 6 1016.0 - 0.0
27/04:30am 21.7 23.5 19.6 88 1.3 SSW 9 11 5 6 1015.9 1015.6 0.0
27/04:00am 22.1 24.0 19.8 87 1.5 S 9 13 5 7 1016.1 - 0.0
27/03:30am 22.4 24.7 20.7 90 1.1 SSW 9 11 5 6 1016.3 - 0.0
27/03:00am 22.6 25.4 20.9 90 1.1 SSW 7 11 4 6 1016.5 - 0.0
27/02:30am 22.6 25.5 21.1 91 1.0 SW 7 9 4 5 1016.9 - 0.0
27/02:00am 22.6 25.4 20.9 90 1.1 SW 7 9 4 5 1017.0 - 0.0
27/01:30am 22.8 25.8 21.3 91 1.0 SW 7 9 4 5 1017.4 1017.1 0.0
27/01:00am 21.9 25.8 20.4 91 1.0 CALM 0 0 0 0 1017.6 - 0.0
27/12:30am 22.2 25.0 20.5 90 1.1 W 6 7 3 4 1017.7 - 0.0
27/12:00am 21.8 25.7 20.3 91 1.0 CALM 0 0 0 0 1017.8 - 0.0
 
Date/Time
CST
Temp
°C
App
Temp
°C
Dew
Point
Rel
Hum
%
Delta-T
°C
Wind Press
QNH
hPa
Press
MSL
hPa
Rain
since 9 am
mm
Dir
 
Spd
km/h
Gust
km/h
Spd
kts
Gust
kts
26/11:30pm 21.8 25.7 20.3 91 1.0 CALM 0 0 0 0 1017.9 - 0.0
26/11:00pm 22.2 26.2 20.5 90 1.1 CALM 0 0 0 0 1018.1 - 0.0
26/10:30pm 22.0 25.8 20.1 89 1.2 CALM 0 0 0 0 1018.2 1017.9 0.0
26/10:00pm 22.4 26.1 19.9 86 1.6 CALM 0 0 0 0 1018.1 - 0.0
26/09:30pm 23.1 27.2 20.8 87 1.5 CALM 0 0 0 0 1017.7 - 0.0
26/09:06pm 23.6 27.2 20.5 83 2.0 N 2 6 1 3 1017.7 - 0.0
26/09:00pm 23.7 27.7 20.6 83 2.0 CALM 0 4 0 2 1017.5 - 0.0
26/08:48pm 23.8 27.7 20.3 81 2.3 CALM 0 0 0 0 1017.4 - 0.0
26/08:30pm 24.3 28.3 20.6 80 2.4 CALM 0 4 0 2 1017.1 - 0.0
26/08:00pm 24.8 27.6 20.9 79 2.6 N 7 11 4 6 1016.9 - 0.0
26/07:30pm 25.1 27.4 20.6 76 2.9 N 9 15 5 8 1016.4 1016.1 0.0
26/07:00pm 25.6 27.3 20.2 72 3.5 N 11 17 6 9 1015.9 - 0.0
26/06:30pm 26.2 27.9 20.1 69 4.0 N 11 17 6 9 1015.3 - 0.0
26/06:00pm 26.5 26.8 19.6 66 4.5 N 17 22 9 12 1014.8 - 0.0
26/05:30pm 27.3 27.3 18.9 60 5.4 N 17 24 9 13 1014.6 - 0.0
26/05:00pm 27.4 27.1 19.2 61 5.3 N 19 26 10 14 1014.4 - 0.0
26/04:30pm 28.2 28.4 19.4 59 5.7 N 17 26 9 14 1014.3 1013.9 0.0
26/04:00pm 29.1 28.9 19.4 55 6.3 N 19 26 10 14 1014.1 - 0.0
26/03:30pm 29.5 29.1 18.9 53 6.9 N 19 26 10 14 1014.0 - 0.0
26/03:00pm 31.5 30.4 17.8 44 8.8 N 20 30 11 16 1013.8 - 0.0
26/02:30pm 33.0 31.7 13.6 31 11.8 NNW 13 20 7 11 1013.9 - 0.0
26/02:00pm 33.9 30.8 11.7 26 13.1 E 19 28 10 15 1014.2 - 0.0
26/01:30pm 34.0 31.5 11.2 25 13.4 E 15 26 8 14 1014.5 1014.1 0.0
26/01:00pm 34.2 32.2 11.4 25 13.4 ENE 13 24 7 13 1015.0 - 0.0
26/12:30pm 33.8 32.4 11.0 25 13.3 SSE 9 20 5 11 1015.3 - 0.0
26/12:00pm 32.4 30.4 11.6 28 12.2 WSW 13 20 7 11 1015.8 - 0.0
26/11:30am 31.7 29.3 11.5 29 11.8 SW 15 22 8 12 1016.3 - 0.0
26/11:00am 30.6 27.7 11.1 30 11.3 SW 17 22 9 12 1016.7 - 0.0
26/10:30am 29.5 26.7 11.5 33 10.4 SW 17 24 9 13 1017.0 1016.7 0.0
26/10:00am 28.3 25.6 11.8 36 9.5 SSW 17 22 9 12 1017.2 - 0.0
26/09:30am 26.6 24.7 13.0 43 8.0 SW 15 20 8 11 1017.1 - 0.0
26/09:00am 24.4 23.3 14.2 53 6.0 SW 13 19 7 10 1017.0 - 0.0
26/08:30am 22.9 22.1 13.9 57 5.3 SW 11 15 6 8 1016.8 - 0.0
26/08:00am 21.4 20.9 14.8 66 3.9 SW 11 13 6 7 1016.6 - 0.0
26/07:30am 21.5 21.1 15.1 67 3.8 SW 11 15 6 8 1016.3 1016.0 0.0
26/07:00am 21.9 21.2 15.5 67 3.8 SSW 13 17 7 9 1016.0 - 0.0
26/06:30am 21.8 21.3 15.9 69 3.6 SSW 13 19 7 10 1015.8 - 0.0
26/06:00am 21.5 22.2 17.9 80 2.2 SW 11 15 6 8 1015.6 - 0.0
26/05:30am 21.1 22.1 18.7 86 1.5 SW 11 13 6 7 1015.4 - 0.0
26/05:00am 21.0 22.3 19.3 90 1.1 SSW 11 15 6 8 1015.4 - 0.0
26/04:30am 20.7 22.9 19.5 93 0.8 SSW 7 9 4 5 1015.4 1015.1 0.0
26/04:00am 21.2 23.0 20.4 95 0.5 SW 11 15 6 8 1015.6 - 0.0
26/03:30am 20.4 23.2 19.7 96 0.4 WSW 4 9 2 5 1015.7 - 0.0
26/03:00am 20.0 23.4 19.3 96 0.4 CALM 0 0 0 0 1016.0 - 0.0
26/02:30am 19.9 23.2 19.2 96 0.4 CALM 0 0 0 0 1016.2 - 0.0
26/02:16am 20.2 23.8 19.7 97 0.3 CALM 0 0 0 0 1016.3 - 0.0
26/02:01am 20.5 24.1 19.8 96 0.4 CALM 0 0 0 0 1016.4 - 0.0
26/02:00am 20.4 24.0 19.7 96 0.4 CALM 0 0 0 0 1016.4 - 0.0
26/01:30am 20.8 23.9 20.3 97 0.3 SSE 4 7 2 4 1016.8 1016.5 0.0
26/01:00am 20.5 22.8 19.5 94 0.6 SE 6 7 3 4 1017.2 - 0.0
26/12:30am 20.6 23.1 19.8 95 0.5 SE 6 9 3 5 1017.3 - 0.0
26/12:00am 20.6 24.0 19.3 92 0.8 CALM 0 0 0 0 1017.3 - 0.0
 
Date/Time
CST
Temp
°C
App
Temp
°C
Dew
Point
Rel
Hum
%
Delta-T
°C
Wind Press
QNH
hPa
Press
MSL
hPa
Rain
since 9 am
mm
Dir
 
Spd
km/h
Gust
km/h
Spd
kts
Gust
kts
25/11:30pm 21.2 24.8 19.8 92 0.9 CALM 0 0 0 0 1017.5 - 0.0
25/11:00pm 22.1 25.1 20.0 88 1.4 NW 4 6 2 3 1017.5 - 0.0
25/10:30pm 22.7 26.0 21.5 93 0.8 N 6 7 3 4 1017.3 1017.0 0.0
25/10:00pm 22.3 25.0 20.2 88 1.4 N 6 7 3 4 1017.1 - 0.0
25/09:30pm 22.6 26.2 19.8 84 1.8 CALM 0 0 0 0 1017.0 - 0.0
25/09:00pm 23.5 26.7 19.8 80 2.4 N 2 6 1 3 1016.7 - 0.0
25/08:30pm 24.1 26.5 20.0 78 2.7 N 7 9 4 5 1016.1 - 0.0
25/08:00pm 24.6 26.6 19.9 75 3.0 N 9 11 5 6 1015.6 - 0.0
25/07:30pm 24.9 26.6 19.3 71 3.6 N 9 13 5 7 1015.3 1015.0 0.0
25/07:00pm 25.6 27.3 18.5 65 4.5 N 7 9 4 5 1014.8 - 0.0
25/06:30pm 26.6 27.2 17.7 58 5.6 N 11 17 6 9 1014.5 - 0.0
25/06:00pm 27.6 27.4 16.6 51 6.8 N 13 17 7 9 1014.0 - 0.0
25/05:30pm 29.1 28.7 16.3 46 8.0 N 13 17 7 9 1013.5 - 0.0
25/05:00pm 29.8 28.6 14.0 38 9.5 NW 13 19 7 10 1013.4 - 0.0

Other Formats:

Comma delimited format used in spreadsheet applications
http://www.bom.gov.au/fwo/IDD60801/IDD60801.95101.axf

JavaScript Object Notation format (JSON) in row-major order
http://www.bom.gov.au/fwo/IDD60801/IDD60801.95101.json